createdAt,value
2018-11-01T00:00:18.739Z,100469.55
2018-11-01T00:01:34.278Z,100471.70
2018-11-01T00:02:44.042Z,100470.41
2018-11-01T00:03:53.087Z,100475.61
2018-11-01T00:05:03.324Z,100481.22
2018-11-01T00:06:14.221Z,100471.71
2018-11-01T00:07:20.955Z,100476.41
2018-11-01T00:08:33.020Z,100466.47
2018-11-01T00:09:42.275Z,100463.54
2018-11-01T00:10:52.812Z,100460.51
2018-11-01T00:12:04.703Z,100453.16
2018-11-01T00:13:13.560Z,100455.31
2018-11-01T00:14:23.168Z,100454.07
2018-11-01T00:15:33.797Z,100460.98
2018-11-01T00:16:45.711Z,100451.47
2018-11-01T00:17:54.119Z,100459.26
2018-11-01T00:19:05.870Z,100456.33
2018-11-01T00:20:14.680Z,100458.02
2018-11-01T00:21:24.893Z,100455.41
2018-11-01T00:22:36.990Z,100445.47
2018-11-01T00:23:48.214Z,100446.44
2018-11-01T00:25:01.526Z,100440.77
2018-11-01T00:26:12.476Z,100442.11
2018-11-01T00:27:24.517Z,100442.50
2018-11-01T00:28:35.893Z,100431.73
2018-11-01T00:29:44.037Z,100433.94
2018-11-01T00:30:56.409Z,100424.86
2018-11-01T00:32:07.668Z,100425.73
2018-11-01T00:33:16.980Z,100425.30
2018-11-01T00:34:32.012Z,100428.33
2018-11-01T00:35:40.730Z,100417.95
2018-11-01T00:36:50.298Z,100418.39
2018-11-01T00:37:57.929Z,100416.64
2018-11-01T00:39:09.773Z,100417.95
2018-11-01T00:40:19.017Z,100420.69
2018-11-01T00:41:30.954Z,100418.09
2018-11-01T00:42:39.760Z,100423.33
2018-11-01T00:43:51.560Z,100417.70
2018-11-01T00:45:03.635Z,100416.07
2018-11-01T00:46:16.427Z,100414.30
2018-11-01T00:47:24.963Z,100413.39
2018-11-01T00:48:37.776Z,100415.11
2018-11-01T00:49:50.355Z,100411.66
2018-11-01T00:51:02.486Z,100420.73
2018-11-01T00:52:18.135Z,100422.41
2018-11-01T00:53:25.895Z,100426.69
2018-11-01T00:54:36.028Z,100417.38
2018-11-01T00:55:46.562Z,100431.05
2018-11-01T00:56:58.032Z,100427.44
2018-11-01T00:58:07.614Z,100430.36
2018-11-01T00:59:19.513Z,100437.34
2018-11-01T01:00:28.528Z,100429.70
2018-11-01T01:01:37.685Z,100424.63
2018-11-01T01:02:47.652Z,100419.53
2018-11-01T01:04:03.113Z,100425.97
2018-11-01T01:05:17.271Z,100421.64
2018-11-01T01:06:25.290Z,100426.45
2018-11-01T01:07:31.876Z,100424.77
2018-11-01T01:08:37.782Z,100423.89
2018-11-01T01:09:47.581Z,100423.91
2018-11-01T01:11:00.435Z,100417.84
2018-11-01T01:12:13.866Z,100417.86
2018-11-01T01:13:23.041Z,100417.42
2018-11-01T01:14:32.969Z,100421.59
2018-11-01T01:15:44.938Z,100427.16
2018-11-01T01:16:56.590Z,100427.11
2018-11-01T01:18:05.119Z,100433.05
2018-11-01T01:19:13.557Z,100435.78
2018-11-01T01:20:20.713Z,100433.72
2018-11-01T01:21:29.842Z,100429.66
2018-11-01T01:22:37.488Z,100423.44
2018-11-01T01:23:45.104Z,100430.52
2018-11-01T01:24:54.656Z,100435.38
2018-11-01T01:26:02.402Z,100436.78
2018-11-01T01:27:13.831Z,100437.25
2018-11-01T01:28:22.176Z,100439.56
2018-11-01T01:29:31.898Z,100438.80
2018-11-01T01:30:41.717Z,100440.66
2018-11-01T01:31:49.320Z,100437.30
2018-11-01T01:33:01.435Z,100434.80
2018-11-01T01:34:09.227Z,100433.07
2018-11-01T01:35:19.441Z,100430.48
2018-11-01T01:36:28.595Z,100432.64
2018-11-01T01:37:41.356Z,100430.09
2018-11-01T01:38:50.394Z,100436.11
2018-11-01T01:39:58.325Z,100424.89
2018-11-01T01:41:04.907Z,100426.09
2018-11-01T01:42:17.662Z,100430.91
2018-11-01T01:43:29.943Z,100434.61
2018-11-01T01:44:40.046Z,100432.98
2018-11-01T01:45:51.106Z,100424.00
2018-11-01T01:46:58.199Z,100419.82
2018-11-01T01:48:08.697Z,100411.23
2018-11-01T01:49:22.840Z,100412.56
2018-11-01T01:50:35.252Z,100410.89
2018-11-01T01:51:43.891Z,100405.84
2018-11-01T01:52:53.448Z,100412.36
2018-11-01T01:54:02.405Z,100412.75
2018-11-01T01:55:13.792Z,100421.82
2018-11-01T01:56:20.897Z,100418.80
2018-11-01T01:57:30.248Z,100418.36
2018-11-01T01:58:37.912Z,100409.28
2018-11-01T01:59:46.595Z,100401.98
2018-11-01T02:00:55.893Z,100399.56
2018-11-01T02:02:05.570Z,100398.31
2018-11-01T02:03:12.956Z,100399.22
2018-11-01T02:04:21.755Z,100398.36
2018-11-01T02:05:28.232Z,100395.72
2018-11-01T02:06:42.582Z,100394.08
2018-11-01T02:07:50.062Z,100391.06
2018-11-01T02:08:58.941Z,100397.53
2018-11-01T02:10:10.392Z,100398.36
2018-11-01T02:11:19.372Z,100393.09
2018-11-01T02:12:26.926Z,100392.23
2018-11-01T02:13:38.381Z,100391.80
2018-11-01T02:14:44.801Z,100384.88
2018-11-01T02:15:54.551Z,100384.45
2018-11-01T02:17:04.595Z,100381.81
2018-11-01T02:18:16.522Z,100385.70
2018-11-01T02:19:28.149Z,100383.16
2018-11-01T02:20:37.420Z,100383.63
2018-11-01T02:21:49.621Z,100379.05
2018-11-01T02:23:02.205Z,100377.37
2018-11-01T02:24:10.802Z,100370.89
2018-11-01T02:25:20.585Z,100368.26
2018-11-01T02:26:32.009Z,100363.89
2018-11-01T02:27:40.801Z,100366.05
2018-11-01T02:30:10.218Z,100366.52
2018-11-01T02:31:16.750Z,100365.66
2018-11-01T02:32:25.491Z,100366.95
2018-11-01T02:33:35.294Z,100358.28
2018-11-01T02:34:45.275Z,100363.50
2018-11-01T02:35:56.489Z,100354.05
2018-11-01T02:37:10.771Z,100347.65
2018-11-01T02:38:22.265Z,100346.35
2018-11-01T02:39:31.081Z,100339.02
2018-11-01T02:40:39.163Z,100346.31
2018-11-01T02:41:51.839Z,100341.52
2018-11-01T02:43:02.918Z,100345.36
2018-11-01T02:44:10.200Z,100348.55
2018-11-01T02:45:22.418Z,100349.80
2018-11-01T02:46:33.848Z,100343.31
2018-11-01T02:47:40.547Z,100345.47
2018-11-01T02:48:49.028Z,100348.02
2018-11-01T02:49:56.114Z,100343.66
2018-11-01T02:51:04.627Z,100347.55
2018-11-01T02:52:13.577Z,100350.09
2018-11-01T02:53:27.147Z,100357.48
2018-11-01T02:54:36.961Z,100353.59
2018-11-01T02:55:44.557Z,100355.33
2018-11-01T02:56:52.448Z,100353.03
2018-11-01T02:58:02.342Z,100348.19
2018-11-01T02:59:10.518Z,100352.50
2018-11-01T03:00:20.548Z,100346.39
2018-11-01T03:01:28.439Z,100347.75
2018-11-01T03:02:38.435Z,100339.96
2018-11-01T03:03:48.335Z,100336.03
2018-11-01T03:05:01.929Z,100342.16
2018-11-01T03:06:09.551Z,100337.84
2018-11-01T03:07:19.317Z,100340.95
2018-11-01T03:08:30.950Z,100341.95
2018-11-01T03:09:41.942Z,100345.11
2018-11-01T03:10:53.174Z,100343.41
2018-11-01T03:12:08.673Z,100337.63
2018-11-01T03:13:20.662Z,100339.09
2018-11-01T03:14:28.013Z,100332.66
2018-11-01T03:15:40.669Z,100328.87
2018-11-01T03:16:48.498Z,100327.70
2018-11-01T03:17:59.541Z,100325.50
2018-11-01T03:19:15.809Z,100327.70
2018-11-01T03:20:24.316Z,100326.50
2018-11-01T03:21:34.302Z,100327.02
2018-11-01T03:22:44.751Z,100327.02
2018-11-01T03:23:52.581Z,100330.94
2018-11-01T03:25:01.018Z,100326.31
2018-11-01T03:26:13.576Z,100323.45
2018-11-01T03:27:21.543Z,100327.27
2018-11-01T03:28:30.894Z,100325.57
2018-11-01T03:29:41.947Z,100317.77
2018-11-01T03:30:54.338Z,100316.82
2018-11-01T03:32:04.192Z,100319.92
2018-11-01T03:33:22.404Z,100323.38
2018-11-01T03:34:34.890Z,100321.69
2018-11-01T03:35:42.993Z,100315.64
2018-11-01T03:36:54.015Z,100321.65
2018-11-01T03:38:08.470Z,100318.23
2018-11-01T03:39:18.874Z,100312.93
2018-11-01T03:40:29.114Z,100311.98
2018-11-01T03:41:40.453Z,100311.13
2018-11-01T03:42:49.248Z,100306.38
2018-11-01T03:43:55.696Z,100311.59
2018-11-01T03:45:06.850Z,100316.42
2018-11-01T03:46:14.079Z,100311.33
2018-11-01T03:47:21.211Z,100306.23
2018-11-01T03:48:30.325Z,100299.36
2018-11-01T03:49:39.453Z,100301.05
2018-11-01T03:50:48.085Z,100305.80
2018-11-01T03:51:57.416Z,100306.15
2018-11-01T03:53:07.403Z,100313.79
2018-11-01T03:54:17.804Z,100315.01
2018-11-01T03:55:25.453Z,100318.94
2018-11-01T03:56:34.497Z,100322.43
2018-11-01T03:57:44.498Z,100324.63
2018-11-01T03:58:53.158Z,100329.81
2018-11-01T04:00:02.216Z,100322.51
2018-11-01T04:01:13.373Z,100325.89
2018-11-01T04:02:20.505Z,100323.72
2018-11-01T04:03:28.938Z,100331.92
2018-11-01T04:04:40.121Z,100330.62
2018-11-01T04:05:50.333Z,100333.18
2018-11-01T04:06:57.301Z,100324.58
2018-11-01T04:08:04.686Z,100322.00
2018-11-01T04:09:15.989Z,100316.98
2018-11-01T04:10:25.011Z,100317.38
2018-11-01T04:11:38.019Z,100313.67
2018-11-01T04:12:45.984Z,100310.86
2018-11-01T04:14:01.123Z,100307.48
2018-11-01T04:15:17.348Z,100303.70
2018-11-01T04:16:25.261Z,100301.63
2018-11-01T04:17:35.311Z,100296.91
2018-11-01T04:18:42.048Z,100293.42
2018-11-01T04:19:50.583Z,100298.61
2018-11-01T04:20:59.507Z,100301.20
2018-11-01T04:22:06.326Z,100295.27
2018-11-01T04:23:14.078Z,100293.20
2018-11-01T04:24:22.530Z,100289.36
2018-11-01T04:25:31.877Z,100287.83
2018-11-01T04:26:41.085Z,100277.22
2018-11-01T04:27:50.015Z,100279.91
2018-11-01T04:28:57.853Z,100288.20
2018-11-01T04:30:07.263Z,100289.97
2018-11-01T04:31:22.986Z,100297.38
2018-11-01T04:32:32.322Z,100294.41
2018-11-01T04:33:44.702Z,100296.84
2018-11-01T04:34:56.990Z,100299.06
2018-11-01T04:36:11.036Z,100300.41
2018-11-01T04:37:25.910Z,100297.55
2018-11-01T04:38:34.533Z,100299.13
2018-11-01T04:39:44.964Z,100299.20
2018-11-01T04:40:58.413Z,100294.52
2018-11-01T04:42:08.612Z,100298.73
2018-11-01T04:43:20.271Z,100301.95
2018-11-01T04:44:29.550Z,100294.33
2018-11-01T04:45:37.377Z,100303.91
2018-11-01T04:46:46.663Z,100307.01
2018-11-01T04:47:53.411Z,100301.48
2018-11-01T04:49:06.249Z,100301.52
2018-11-01T04:50:16.699Z,100299.59
2018-11-01T04:51:27.472Z,100301.39
2018-11-01T04:52:43.153Z,100298.83
2018-11-01T04:53:54.758Z,100296.21
2018-11-01T04:55:03.590Z,100291.03
2018-11-01T04:56:14.726Z,100286.75
2018-11-01T04:57:26.053Z,100288.05
2018-11-01T04:58:36.611Z,100281.98
2018-11-01T04:59:46.922Z,100277.27
2018-11-01T05:00:59.477Z,100283.34
2018-11-01T05:02:05.608Z,100269.55
2018-11-01T05:03:16.751Z,100270.48
2018-11-01T05:04:26.438Z,100267.49
2018-11-01T05:05:39.183Z,100259.70
2018-11-01T05:06:48.490Z,100263.55
2018-11-01T05:07:58.323Z,100266.45
2018-11-01T05:09:09.667Z,100267.75
2018-11-01T05:10:25.297Z,100266.48
2018-11-01T05:11:33.473Z,100263.50
2018-11-01T05:12:42.116Z,100255.78
2018-11-01T05:13:53.529Z,100257.25
2018-11-01T05:15:00.267Z,100254.30
2018-11-01T05:16:08.879Z,100253.04
2018-11-01T05:17:15.684Z,100253.47
2018-11-01T05:18:24.964Z,100256.85
2018-11-01T05:19:37.006Z,100258.14
2018-11-01T05:20:48.587Z,100250.39
2018-11-01T05:21:59.402Z,100243.48
2018-11-01T05:23:08.057Z,100237.05
2018-11-01T05:24:19.061Z,100224.66
2018-11-01T05:25:29.428Z,100219.98
2018-11-01T05:26:39.400Z,100220.84
2018-11-01T05:27:45.994Z,100219.09
2018-11-01T05:28:53.535Z,100217.80
2018-11-01T05:29:59.940Z,100218.20
2018-11-01T05:31:09.864Z,100215.61
2018-11-01T05:32:17.431Z,100210.44
2018-11-01T05:33:26.413Z,100206.59
2018-11-01T05:34:34.162Z,100204.04
2018-11-01T05:35:40.964Z,100207.02
2018-11-01T05:36:51.327Z,100205.66
2018-11-01T05:37:59.708Z,100208.11
2018-11-01T05:39:10.155Z,100211.52
2018-11-01T05:40:18.021Z,100217.05
2018-11-01T05:41:30.523Z,100217.47
2018-11-01T05:42:36.957Z,100214.53
2018-11-01T05:43:43.995Z,100215.00
2018-11-01T05:44:54.323Z,100206.87
2018-11-01T05:46:04.940Z,100206.48
2018-11-01T05:47:14.897Z,100204.77
2018-11-01T05:48:24.564Z,100208.67
2018-11-01T05:49:35.139Z,100204.77
2018-11-01T05:50:44.816Z,100210.69
2018-11-01T05:51:55.262Z,100199.87
2018-11-01T05:53:03.968Z,100205.01
2018-11-01T05:54:11.118Z,100203.67
2018-11-01T05:55:23.723Z,100201.09
2018-11-01T05:56:35.965Z,100195.56
2018-11-01T05:57:47.853Z,100194.34
2018-11-01T05:58:55.211Z,100189.60
2018-11-01T06:00:06.606Z,100184.90
2018-11-01T06:01:14.001Z,100185.37
2018-11-01T06:02:24.797Z,100183.64
2018-11-01T06:03:38.516Z,100192.16
2018-11-01T06:04:46.174Z,100195.09
2018-11-01T06:05:54.910Z,100197.13
2018-11-01T06:07:04.188Z,100206.11
2018-11-01T06:08:13.150Z,100201.36
2018-11-01T06:09:21.368Z,100206.15
2018-11-01T06:10:28.364Z,100208.66
2018-11-01T06:11:38.596Z,100205.25
2018-11-01T06:12:48.711Z,100207.09
2018-11-01T06:13:55.909Z,100215.43
2018-11-01T06:15:05.058Z,100211.62
2018-11-01T06:16:13.799Z,100214.28
2018-11-01T06:17:23.187Z,100220.21
2018-11-01T06:18:34.512Z,100228.30
2018-11-01T06:19:46.265Z,100227.39
2018-11-01T06:20:53.702Z,100230.67
2018-11-01T06:22:08.475Z,100232.25
2018-11-01T06:23:21.057Z,100231.79
2018-11-01T06:24:30.198Z,100243.66
2018-11-01T06:25:42.449Z,100242.41
2018-11-01T06:26:52.436Z,100241.89
2018-11-01T06:28:02.312Z,100243.09
2018-11-01T06:29:14.359Z,100243.34
2018-11-01T06:30:22.174Z,100253.47
2018-11-01T06:31:30.824Z,100255.02
2018-11-01T06:32:41.939Z,100261.09
2018-11-01T06:33:51.277Z,100261.34
2018-11-01T06:35:03.088Z,100260.87
2018-11-01T06:36:11.913Z,100266.52
2018-11-01T06:37:21.000Z,100265.20
2018-11-01T06:38:28.852Z,100271.55
2018-11-01T06:39:40.487Z,100270.80
2018-11-01T06:40:50.564Z,100270.08
2018-11-01T06:42:05.022Z,100276.05
2018-11-01T06:43:16.466Z,100273.96
2018-11-01T06:44:25.211Z,100273.92
2018-11-01T06:45:35.477Z,100271.30
2018-11-01T06:46:49.664Z,100261.81
2018-11-01T06:48:00.387Z,100264.58
2018-11-01T06:49:09.591Z,100249.19
2018-11-01T06:50:17.917Z,100247.44
2018-11-01T06:51:27.427Z,100248.80
2018-11-01T06:52:38.878Z,100245.81
2018-11-01T06:53:48.459Z,100243.16
2018-11-01T06:54:59.233Z,100239.64
2018-11-01T06:56:07.198Z,100236.55
2018-11-01T06:57:18.516Z,100236.48
2018-11-01T06:58:27.582Z,100233.43
2018-11-01T06:59:39.686Z,100227.78
2018-11-01T07:00:49.970Z,100224.66
2018-11-01T07:01:59.184Z,100220.30
2018-11-01T07:03:12.984Z,100218.41
2018-11-01T07:04:22.784Z,100209.22
2018-11-01T07:05:35.685Z,100204.64
2018-11-01T07:06:44.648Z,100200.28
2018-11-01T07:07:54.098Z,100200.55
2018-11-01T07:09:04.664Z,100193.27
2018-11-01T07:10:16.425Z,100185.54
2018-11-01T07:11:25.957Z,100190.16
2018-11-01T07:12:33.881Z,100181.16
2018-11-01T07:13:41.101Z,100179.84
2018-11-01T07:14:50.773Z,100176.77
2018-11-01T07:15:59.669Z,100179.23
2018-11-01T07:17:09.618Z,100174.25
2018-11-01T07:18:18.273Z,100167.50
2018-11-01T07:19:29.880Z,100162.52
2018-11-01T07:20:36.966Z,100158.82
2018-11-01T07:21:45.533Z,100165.91
2018-11-01T07:22:56.219Z,100164.41
2018-11-01T07:24:07.381Z,100170.18
2018-11-01T07:25:19.820Z,100172.34
2018-11-01T07:26:33.928Z,100169.27
2018-11-01T07:27:41.999Z,100164.45
2018-11-01T07:28:53.011Z,100155.87
2018-11-01T07:30:03.547Z,100156.36
2018-11-01T07:31:14.336Z,100157.22
2018-11-01T07:32:23.531Z,100158.48
2018-11-01T07:33:37.872Z,100153.66
2018-11-01T07:34:52.048Z,100153.91
2018-11-01T07:36:01.693Z,100148.56
2018-11-01T07:37:13.020Z,100152.39
2018-11-01T07:38:24.828Z,100148.99
2018-11-01T07:39:34.482Z,100149.79
2018-11-01T07:40:41.471Z,100151.81
2018-11-01T07:41:52.019Z,100154.28
2018-11-01T07:43:04.279Z,100151.38
2018-11-01T07:44:15.449Z,100147.20
2018-11-01T07:45:31.368Z,100143.22
2018-11-01T07:46:43.318Z,100146.09
2018-11-01T07:47:51.476Z,100133.36
2018-11-01T07:48:59.387Z,100143.06
2018-11-01T07:50:12.752Z,100135.42
2018-11-01T07:51:25.536Z,100139.89
2018-11-01T07:52:41.327Z,100139.63
2018-11-01T07:53:57.094Z,100128.91
2018-11-01T07:55:09.198Z,100122.39
2018-11-01T07:56:21.474Z,100121.45
2018-11-01T07:57:33.621Z,100132.17
2018-11-01T07:58:42.307Z,100135.94
2018-11-01T07:59:53.981Z,100132.89
2018-11-01T08:01:03.838Z,100126.86
2018-11-01T08:02:18.105Z,100122.02
2018-11-01T08:03:33.203Z,100125.78
2018-11-01T08:04:44.367Z,100120.80
2018-11-01T08:05:56.692Z,100125.06
2018-11-01T08:07:12.840Z,100124.53
2018-11-01T08:08:21.906Z,100118.54
2018-11-01T08:09:31.315Z,100121.00
2018-11-01T08:10:39.589Z,100121.53
2018-11-01T08:11:49.343Z,100127.59
2018-11-01T08:12:58.528Z,100121.73
2018-11-01T08:14:09.624Z,100120.97
2018-11-01T08:15:28.566Z,100120.08
2018-11-01T08:16:38.542Z,100119.32
2018-11-01T08:17:45.950Z,100122.77
2018-11-01T08:18:55.733Z,100129.77
2018-11-01T08:20:04.512Z,100132.57
2018-11-01T08:21:15.448Z,100137.76
2018-11-01T08:22:25.804Z,100136.79
2018-11-01T08:23:33.152Z,100132.73
2018-11-01T08:24:40.785Z,100131.77
2018-11-01T08:25:52.892Z,100132.19
2018-11-01T08:27:00.799Z,100133.22
2018-11-01T08:28:12.657Z,100138.63
2018-11-01T08:29:20.326Z,100139.97
2018-11-01T08:31:45.965Z,100145.95
2018-11-01T08:32:57.446Z,100141.35
2018-11-01T08:34:12.551Z,100147.11
2018-11-01T08:35:23.999Z,100136.89
2018-11-01T08:36:33.891Z,100142.40
2018-11-01T08:37:43.084Z,100139.70
2018-11-01T08:38:56.853Z,100145.19
2018-11-01T08:40:04.315Z,100144.62
2018-11-01T08:41:13.540Z,100144.97
2018-11-01T08:42:23.155Z,100143.65
2018-11-01T08:43:34.704Z,100150.20
2018-11-01T08:44:43.874Z,100153.33
2018-11-01T08:45:53.116Z,100156.88
2018-11-01T08:47:02.261Z,100165.03
2018-11-01T08:48:09.436Z,100159.66
2018-11-01T08:49:19.614Z,100155.29
2018-11-01T08:50:33.757Z,100151.48
2018-11-01T08:51:59.426Z,100145.97
2018-11-01T09:03:57.765Z,100117.44
2018-11-01T09:05:14.262Z,100114.69
2018-11-01T09:06:26.432Z,100114.06
2018-11-01T09:07:34.780Z,100111.41
2018-11-01T09:08:49.452Z,100106.88
2018-11-01T09:09:58.079Z,100111.33
2018-11-01T09:11:09.258Z,100107.30
2018-11-01T09:12:22.940Z,100107.88
2018-11-01T09:13:34.592Z,100110.21
2018-11-01T09:14:47.223Z,100099.80
2018-11-01T09:16:39.290Z,100100.95
2018-11-01T09:17:47.428Z,100095.39
2018-11-01T09:18:59.204Z,100097.66
2018-11-01T09:20:12.810Z,100095.02
2018-11-01T09:21:22.993Z,100094.16
2018-11-01T09:22:31.761Z,100092.73
2018-11-01T09:23:44.458Z,100085.04
2018-11-01T09:24:53.820Z,100079.77
2018-11-01T09:26:07.544Z,100072.72
2018-11-01T09:27:16.907Z,100076.73
2018-11-01T09:28:26.234Z,100079.69
2018-11-01T09:29:39.417Z,100087.41
2018-11-01T09:30:54.131Z,100087.85
2018-11-01T09:32:04.885Z,100094.78
2018-11-01T09:33:15.963Z,100093.94
2018-11-01T09:34:22.665Z,100089.78
2018-11-01T09:35:34.833Z,100081.83
2018-11-01T09:36:43.720Z,100086.40
2018-11-01T09:37:52.644Z,100089.65
2018-11-01T09:39:00.920Z,100084.28
2018-11-01T09:40:15.335Z,100089.02
2018-11-01T09:41:27.412Z,100090.18
2018-11-01T09:42:35.405Z,100092.25
2018-11-01T09:43:45.619Z,100088.80
2018-11-01T09:44:54.946Z,100090.55
2018-11-01T09:46:01.860Z,100090.36
2018-11-01T09:47:09.853Z,100099.74
2018-11-01T09:49:53.199Z,100110.69
2018-11-01T09:50:59.911Z,100108.72
2018-11-01T09:52:06.900Z,100110.33
2018-11-01T09:53:13.152Z,100110.41
2018-11-01T09:54:19.418Z,100112.19
2018-11-01T09:55:25.644Z,100108.52
2018-11-01T09:56:32.157Z,100099.50
2018-11-01T09:57:38.577Z,100100.61
2018-11-01T09:58:44.831Z,100095.84
2018-11-01T09:59:55.021Z,100092.88
2018-11-01T10:01:01.257Z,100090.80
2018-11-01T10:02:06.773Z,100091.36
2018-11-01T10:03:12.981Z,100089.00
2018-11-01T10:04:18.875Z,100086.72
2018-11-01T10:05:25.075Z,100077.87
2018-11-01T10:06:33.363Z,100074.08
2018-11-01T10:07:39.562Z,100067.37
2018-11-01T10:08:45.773Z,100061.93
2018-11-01T10:09:52.351Z,100055.16
2018-11-01T10:10:58.528Z,100052.35
2018-11-01T10:12:04.360Z,100049.89
2018-11-01T10:13:10.832Z,100049.19
2018-11-01T10:14:17.063Z,100053.27
2018-11-01T10:15:23.366Z,100055.46
2018-11-01T10:16:29.785Z,100054.84
2018-11-01T10:17:36.266Z,100049.89
2018-11-01T10:18:42.294Z,100047.91
2018-11-01T10:19:48.437Z,100047.50
2018-11-01T10:20:54.614Z,100047.65
2018-11-01T10:22:01.171Z,100052.00
2018-11-01T10:23:07.367Z,100049.41
2018-11-01T10:24:13.375Z,100040.66
2018-11-01T10:25:19.641Z,100038.95
2018-11-01T10:26:26.279Z,100032.44
2018-11-01T10:27:32.598Z,100030.06
2018-11-01T10:28:39.551Z,100029.98
2018-11-01T10:29:47.123Z,100029.80
2018-11-01T10:30:53.726Z,100026.60
2018-11-01T10:32:00.794Z,100025.64
2018-11-01T10:33:07.820Z,100025.03
2018-11-01T10:34:15.265Z,100022.54
2018-11-01T10:35:22.021Z,100017.42
2018-11-01T10:36:29.571Z,100014.83
2018-11-01T10:37:37.420Z,100013.33
2018-11-01T10:38:45.018Z,100003.23
2018-11-01T10:39:52.467Z,100003.74
2018-11-01T10:40:59.115Z,99997.82
2018-11-01T10:42:04.859Z,99993.92
2018-11-01T10:43:11.011Z,100000.77
2018-11-01T10:44:17.204Z,100007.26
2018-11-01T10:45:23.490Z,100008.32
2018-11-01T10:46:34.438Z,100008.64
2018-11-01T10:47:42.914Z,100009.28
2018-11-01T10:48:51.661Z,100004.98
2018-11-01T10:50:03.585Z,100003.11
2018-11-01T10:51:13.035Z,100002.79
2018-11-01T10:52:21.798Z,100003.08
2018-11-01T10:53:36.599Z,100004.55
2018-11-01T10:55:16.139Z,100002.22
2018-11-01T10:56:23.822Z,100009.61
2018-11-01T10:57:30.836Z,100010.05
2018-11-01T10:58:37.022Z,100003.69
2018-11-01T10:59:43.233Z,100011.52
2018-11-01T11:00:49.396Z,100005.53
2018-11-01T11:01:55.437Z,100007.86
2018-11-01T11:03:01.594Z,100008.84
2018-11-01T11:04:07.797Z,100002.78
2018-11-01T11:05:14.044Z,100014.53
2018-11-01T11:06:20.368Z,100003.77
2018-11-01T11:07:26.716Z,100007.07
2018-11-01T11:08:33.110Z,100010.98
2018-11-01T11:09:39.318Z,100005.23
2018-11-01T11:10:45.481Z,100011.68
2018-11-01T11:11:51.718Z,100012.73
2018-11-01T11:12:57.914Z,100012.45
2018-11-01T11:14:04.128Z,100011.98
2018-11-01T11:15:10.295Z,100014.98
2018-11-01T11:16:16.491Z,100016.17
2018-11-01T11:17:22.802Z,100008.52
2018-11-01T11:18:28.978Z,100010.23
2018-11-01T11:19:35.166Z,100013.27
2018-11-01T11:20:41.558Z,100013.02
2018-11-01T11:21:47.798Z,100012.11
2018-11-01T11:22:54.040Z,100015.70
2018-11-01T11:24:00.305Z,100019.02
2018-11-01T11:25:06.236Z,100021.83
2018-11-01T11:26:12.489Z,100025.97
2018-11-01T11:27:18.726Z,100020.50
2018-11-01T11:28:24.969Z,100017.00
2018-11-01T11:29:31.177Z,100024.75
2018-11-01T11:30:37.445Z,100023.53
2018-11-01T11:31:43.841Z,100024.80
2018-11-01T11:32:50.159Z,100025.11
2018-11-01T11:33:56.577Z,100025.28
2018-11-01T11:35:03.072Z,100020.94
2018-11-01T11:36:09.253Z,100016.06
2018-11-01T11:37:15.648Z,100019.54
2018-11-01T11:38:21.876Z,100020.56
2018-11-01T11:39:30.565Z,100023.64
2018-11-01T11:40:37.485Z,100018.17
2018-11-01T11:41:44.529Z,100019.09
2018-11-01T11:42:50.865Z,100023.58
2018-11-01T11:43:57.174Z,100021.36
2018-11-01T11:45:03.408Z,100022.88
2018-11-01T11:46:09.719Z,100013.53
2018-11-01T11:47:15.952Z,100022.90
2018-11-01T11:48:21.861Z,100013.59
2018-11-01T11:49:28.082Z,100009.25
2018-11-01T11:50:34.274Z,100000.49
2018-11-01T11:51:40.523Z,99999.83
2018-11-01T11:52:46.726Z,99990.73
2018-11-01T11:53:52.964Z,99986.42
2018-11-01T11:54:59.117Z,99983.76
2018-11-01T11:56:04.561Z,99978.50
2018-11-01T11:57:10.884Z,99980.60
2018-11-01T11:58:17.345Z,99980.27
2018-11-01T11:59:23.894Z,99983.66
2018-11-01T12:00:32.812Z,99982.66
2018-11-01T12:01:39.106Z,99977.48
2018-11-01T12:02:45.279Z,99983.58
2018-11-01T12:03:51.479Z,99979.96
2018-11-01T12:04:57.785Z,99980.84
2018-11-01T12:06:04.051Z,99980.98
2018-11-01T12:07:10.420Z,99975.80
2018-11-01T12:08:16.610Z,99976.09
2018-11-01T12:09:22.751Z,99982.61
2018-11-01T12:10:29.711Z,99981.73
2018-11-01T12:11:36.138Z,99977.83
2018-11-01T12:12:42.355Z,99971.25
2018-11-01T12:13:48.583Z,99979.33
2018-11-01T12:14:54.752Z,99977.11
2018-11-01T12:16:00.973Z,99975.67
2018-11-01T12:17:07.129Z,99970.08
2018-11-01T12:18:13.304Z,99966.89
2018-11-01T12:19:19.483Z,99966.70
2018-11-01T12:20:25.678Z,99958.92
2018-11-01T12:21:31.859Z,99949.39
2018-11-01T12:22:38.069Z,99948.13
2018-11-01T12:23:44.279Z,99949.88
2018-11-01T12:24:50.493Z,99949.30
2018-11-01T12:25:56.811Z,99944.37
2018-11-01T12:27:02.740Z,99940.53
2018-11-01T12:28:08.948Z,99931.53
2018-11-01T12:29:15.253Z,99921.03
2018-11-01T12:30:21.444Z,99918.10
2018-11-01T12:31:27.678Z,99921.06
2018-11-01T12:32:33.889Z,99917.44
2018-11-01T12:33:40.087Z,99905.50
2018-11-01T12:34:46.327Z,99907.16
2018-11-01T12:35:52.612Z,99904.44
2018-11-01T12:36:58.948Z,99905.73
2018-11-01T12:38:04.767Z,99893.91
2018-11-01T12:39:11.049Z,99892.51
2018-11-01T12:40:17.249Z,99891.59
2018-11-01T12:41:23.567Z,99895.86
2018-11-01T12:42:30.253Z,99897.31
2018-11-01T12:43:37.322Z,99898.83
2018-11-01T12:44:43.542Z,99890.88
2018-11-01T12:45:49.778Z,99896.39
2018-11-01T12:46:56.025Z,99899.46
2018-11-01T12:48:02.258Z,99892.88
2018-11-01T12:49:09.266Z,99891.48
2018-11-01T12:50:15.704Z,99889.93
2018-11-01T12:51:22.054Z,99894.23
2018-11-01T12:52:28.224Z,99892.92
2018-11-01T12:53:34.436Z,99903.77
2018-11-01T12:54:40.709Z,99898.97
2018-11-01T12:55:46.913Z,99888.63
2018-11-01T12:56:53.134Z,99886.77
2018-11-01T12:57:59.365Z,99888.84
2018-11-01T12:59:05.277Z,99881.16
2018-11-01T13:00:11.522Z,99884.66
2018-11-01T13:01:17.741Z,99888.56
2018-11-01T13:02:23.807Z,99884.97
2018-11-01T13:03:32.379Z,99885.97
2018-11-01T13:04:38.792Z,99880.83
2018-11-01T13:05:45.057Z,99882.28
2018-11-01T13:06:51.272Z,99884.36
2018-11-01T13:07:57.605Z,99885.85
2018-11-01T13:09:03.184Z,99887.45
2018-11-01T13:10:09.043Z,99881.31
2018-11-01T13:11:15.277Z,99877.54
2018-11-01T13:12:21.428Z,99879.08
2018-11-01T13:13:27.586Z,99871.70
2018-11-01T13:14:34.401Z,99865.00
2018-11-01T13:15:40.605Z,99858.18
2018-11-01T13:16:46.945Z,99852.12
2018-11-01T13:17:53.396Z,99847.33
2018-11-01T13:18:59.844Z,99845.56
2018-11-01T13:20:05.872Z,99844.77
2018-11-01T13:21:12.109Z,99835.14
2018-11-01T13:22:18.301Z,99832.55
2018-11-01T13:23:24.509Z,99827.31
2018-11-01T13:24:38.550Z,99829.91
2018-11-01T13:25:44.894Z,99833.89
2018-11-01T13:26:51.125Z,99837.83
2018-11-01T13:27:57.376Z,99834.33